Time;durP1;ratioP1;P1;durP2;ratioP2;P2;SDS_P1;SDS_P2;PMS_P1;PMS_P2;Temp;Humidity;BMP_temperature;BMP_pressure;BME280_temperature;BME280_humidity;BME280_pressure;Samples;Min_cycle;Max_cycle;Signal;HPM_P1;HPM_P2
2022/05/28 00:01:54;;;;;;;7.83;2.47;;;;;;;11.55;69.14;102197.06;5074899;28;20038;-35
2022/05/28 00:04:19;;;;;;;10.77;3.17;;;;;;;11.57;69.13;102199.59;5075045;28;20099;-35
2022/05/28 00:06:45;;;;;;;6.63;2.17;;;;;;;11.61;69.17;102195.41;5075200;28;20032;-35
2022/05/28 00:09:10;;;;;;;8.30;2.85;;;;;;;11.49;69.47;102194.34;5074686;28;20409;-35
2022/05/28 00:11:39;;;;;;;7.32;2.30;;;;;;;11.51;69.81;102192.28;5074344;28;20341;-35
2022/05/28 00:14:06;;;;;;;7.18;2.45;;;;;;;11.53;69.68;102187.50;5074902;28;20036;-35
2022/05/28 00:16:32;;;;;;;7.03;2.78;;;;;;;11.49;70.17;102175.41;5074720;28;20031;-35
2022/05/28 00:18:58;;;;;;;9.15;2.47;;;;;;;11.56;70.29;102179.78;5074471;28;20032;-35
2022/05/28 00:21:25;;;;;;;10.00;3.35;;;;;;;11.58;70.09;102187.72;5074718;28;20477;-35
2022/05/28 00:23:51;;;;;;;8.30;2.33;;;;;;;11.59;70.27;102184.78;5074136;28;20020;-35
2022/05/28 00:26:17;;;;;;;9.10;2.15;;;;;;;11.55;70.24;102188.94;5074622;28;20032;-35
2022/05/28 00:28:42;;;;;;;9.70;2.50;;;;;;;11.46;70.71;102184.75;5073674;28;20036;-35
2022/05/28 00:31:08;;;;;;;6.63;2.22;;;;;;;11.54;71.11;102183.75;5074977;28;20040;-35
2022/05/28 00:33:33;;;;;;;6.45;2.15;;;;;;;11.48;71.12;102179.97;5074231;28;20449;-36
2022/05/28 00:36:00;;;;;;;6.23;2.13;;;;;;;11.35;71.39;102171.81;5074921;28;20119;-35
2022/05/28 00:38:27;;;;;;;8.23;2.60;;;;;;;11.40;71.44;102185.56;5073998;28;20056;-35
2022/05/28 00:40:55;;;;;;;6.38;2.85;;;;;;;11.35;71.09;102166.41;5074520;28;20036;-35
2022/05/28 00:43:20;;;;;;;10.02;3.28;;;;;;;11.29;71.63;102170.75;5074221;28;20078;-35
2022/05/28 00:45:49;;;;;;;7.82;2.65;;;;;;;11.31;72.12;102170.53;5074203;28;20021;-35
2022/05/28 00:48:20;;;;;;;9.18;2.78;;;;;;;11.39;71.58;102175.78;5073906;28;20480;-35
2022/05/28 00:50:46;;;;;;;10.43;2.58;;;;;;;11.39;71.56;102169.53;5074199;28;20060;-41
2022/05/28 00:53:12;;;;;;;8.77;2.45;;;;;;;11.39;72.02;102161.41;5073972;28;20063;-36
2022/05/28 00:55:37;;;;;;;6.45;2.60;;;;;;;11.39;71.96;102164.94;5073759;28;20067;-35
2022/05/28 00:58:05;;;;;;;9.27;2.40;;;;;;;11.34;72.46;102154.72;5073631;28;20033;-35
2022/05/28 01:00:33;;;;;;;10.65;3.20;;;;;;;11.46;72.03;102168.50;5073889;28;20258;-35
2022/05/28 01:03:19;;;;;;;9.02;2.33;;;;;;;11.40;72.18;102154.94;5073859;28;20017;-35
2022/05/28 01:05:51;;;;;;;6.38;2.17;;;;;;;11.44;72.27;102172.47;5073767;28;20029;-35
2022/05/28 01:08:35;;;;;;;9.45;2.47;;;;;;;11.46;72.34;102171.22;5073597;28;20074;-35
2022/05/28 01:11:07;;;;;;;8.52;2.45;;;;;;;11.44;72.61;102165.19;5073647;28;20522;-35
2022/05/28 01:13:43;;;;;;;9.68;2.50;;;;;;;11.27;73.28;102158.44;5073450;28;20028;-35
2022/05/28 01:16:26;;;;;;;9.13;2.47;;;;;;;11.41;72.58;102156.63;5074064;28;20056;-35
2022/05/28 01:18:59;;;;;;;10.95;2.42;;;;;;;11.35;72.86;102156.41;5074082;28;20060;-35
2022/05/28 01:21:47;;;;;;;8.02;2.28;;;;;;;11.38;72.66;102152.47;5073847;28;20036;-35
2022/05/28 01:24:34;;;;;;;9.82;2.97;;;;;;;11.35;73.20;102158.28;5073615;28;20021;-35
2022/05/28 01:27:02;;;;;;;;;;;;;;;11.45;71.55;102158.72;5074226;28;20031;-35
2022/05/28 01:29:37;;;;;;;10.48;3.05;;;;;;;11.29;73.22;102153.69;5073066;28;19919;-35
2022/05/28 01:32:04;;;;;;;12.48;3.35;;;;;;;11.21;73.67;102165.50;5073739;28;20025;-35
2022/05/28 01:34:31;;;;;;;5.90;2.30;;;;;;;11.12;74.08;102160.47;5073134;28;20035;-35
2022/05/28 01:36:58;;;;;;;6.78;2.85;;;;;;;11.21;74.31;102164.69;5073908;28;20021;-35
2022/05/28 01:39:25;;;;;;;9.40;2.85;;;;;;;11.14;74.86;102163.84;5072748;28;20366;-35
2022/05/28 01:41:52;;;;;;;10.13;2.80;;;;;;;11.15;74.81;102163.63;5072973;28;20381;-35
2022/05/28 01:44:19;;;;;;;8.00;2.88;;;;;;;11.04;74.82;102165.03;5072973;28;20150;-35
2022/05/28 01:46:46;;;;;;;13.13;2.72;;;;;;;10.77;75.53;102139.72;5073163;28;20032;-36
2022/05/28 01:49:14;;;;;;;9.70;3.03;;;;;;;10.92;76.15;102155.81;5072137;28;20072;-35
2022/05/28 01:51:43;;;;;;;8.48;2.63;;;;;;;10.95;75.63;102160.00;5073161;28;20085;-35
2022/05/28 01:54:12;;;;;;;11.75;3.03;;;;;;;10.94;75.91;102163.75;5072785;28;20020;-35
2022/05/28 01:56:43;;;;;;;8.90;2.88;;;;;;;10.91;76.01;102156.84;5072924;28;20122;-35
2022/05/28 01:59:10;;;;;;;9.43;2.55;;;;;;;10.81;76.83;102159.09;5073093;28;20348;-35
2022/05/28 02:01:36;;;;;;;8.63;2.90;;;;;;;10.80;76.66;102160.16;5072799;28;20388;-35
2022/05/28 02:04:06;;;;;;;8.55;2.70;;;;;;;10.69;76.90;102164.25;5072591;28;20025;-35
2022/05/28 02:06:33;;;;;;;8.15;2.90;;;;;;;10.61;77.58;102166.28;5072734;28;20453;-35
2022/05/28 02:08:59;;;;;;;8.80;2.55;;;;;;;10.58;77.76;102148.56;5073254;28;20033;-35
2022/05/28 02:11:27;;;;;;;7.45;2.45;;;;;;;10.51;78.59;102155.81;5073354;28;20036;-35
2022/05/28 02:14:14;;;;;;;10.30;3.10;;;;;;;10.66;77.77;102161.09;5072705;28;20029;-35
2022/05/28 02:16:49;;;;;;;8.88;2.83;;;;;;;10.64;78.11;102164.03;5073066;28;20032;-35
2022/05/28 02:19:35;;;;;;;9.68;2.33;;;;;;;10.68;77.50;102159.03;5073992;28;20024;-35
2022/05/28 02:22:05;;;;;;;7.50;2.40;;;;;;;10.68;78.32;102153.63;5072591;28;20047;-35
2022/05/28 02:24:36;;;;;;;7.70;2.42;;;;;;;10.57;78.52;102145.03;5072671;28;20365;-35
2022/05/28 02:27:08;;;;;;;6.82;2.55;;;;;;;10.66;77.71;102151.13;5072615;28;20119;-35
2022/05/28 02:29:34;;;;;;;9.90;2.60;;;;;;;10.65;78.45;102159.44;5072558;28;20025;-35
2022/05/28 02:31:59;;;;;;;;;;;;;;;10.81;75.75;102149.13;5073165;28;20052;-35
2022/05/28 02:34:24;;;;;;;10.40;3.50;;;;;;;10.64;78.30;102141.50;5072293;28;20210;-35
2022/05/28 02:36:50;;;;;;;8.70;2.57;;;;;;;10.62;78.41;102146.31;5072767;28;20351;-35
2022/05/28 02:39:15;;;;;;;6.43;1.98;;;;;;;10.61;78.83;102150.03;5072216;28;20267;-35
2022/05/28 02:41:41;;;;;;;6.38;2.33;;;;;;;10.64;78.42;102141.50;5072811;28;20029;-35
2022/05/28 02:44:06;;;;;;;10.33;2.67;;;;;;;10.66;78.86;102140.28;5072206;28;20056;-35
2022/05/28 02:46:32;;;;;;;9.18;3.05;;;;;;;10.63;79.17;102145.25;5072774;28;20024;-35
2022/05/28 02:48:58;;;;;;;8.60;2.35;;;;;;;10.54;79.75;102131.91;5072444;28;20032;-35
2022/05/28 02:51:23;;;;;;;9.10;2.85;;;;;;;10.54;80.17;102125.66;5072488;28;20037;-35
2022/05/28 02:53:52;;;;;;;11.88;3.80;;;;;;;10.60;79.70;102127.56;5072439;28;20036;-35
2022/05/28 02:56:18;;;;;;;7.28;2.40;;;;;;;10.55;80.13;102128.19;5072721;28;20036;-35
2022/05/28 02:58:43;;;;;;;8.38;2.55;;;;;;;10.57;80.24;102126.09;5072811;28;20376;-35
2022/05/28 03:01:33;;;;;;;9.30;2.63;;;;;;;10.59;79.94;102131.31;5074844;28;20115;-35
2022/05/28 03:03:59;;;;;;;7.53;2.25;;;;;;;10.42;80.63;102121.84;5076632;28;20103;-35
2022/05/28 03:06:25;;;;;;;7.97;2.40;;;;;;;10.45;81.29;102126.88;5076314;28;20536;-35
2022/05/28 03:08:50;;;;;;;7.93;2.42;;;;;;;10.39;81.12;102136.59;5075738;28;20116;-35
2022/05/28 03:11:16;;;;;;;11.90;3.33;;;;;;;10.34;81.21;102132.81;5075633;28;20063;-35
2022/05/28 03:13:41;;;;;;;8.00;2.30;;;;;;;10.43;81.70;102140.56;5075672;28;20035;-35
2022/05/28 03:16:07;;;;;;;6.60;2.63;;;;;;;10.44;81.60;102136.00;5075959;28;20434;-35
2022/05/28 03:18:33;;;;;;;;;;;;;;;10.56;79.24;102139.81;5076526;28;20040;-35
2022/05/28 03:20:58;;;;;;;6.37;2.20;;;;;;;10.53;81.77;102141.03;5076046;28;19919;-35
2022/05/28 03:23:23;;;;;;;5.17;1.80;;;;;;;10.40;81.04;102145.56;5075862;28;20285;-35
2022/05/28 03:25:49;;;;;;;8.80;2.13;;;;;;;10.46;82.52;102147.47;5076068;28;20029;-35
2022/05/28 03:28:14;;;;;;;7.43;2.03;;;;;;;10.50;81.92;102146.03;5075943;28;20020;-35
2022/05/28 03:30:39;;;;;;;7.78;2.10;;;;;;;10.45;82.32;102149.34;5075542;28;20040;-35
2022/05/28 03:33:05;;;;;;;8.00;2.60;;;;;;;10.42;82.94;102146.19;5075569;28;20031;-35
2022/05/28 03:35:30;;;;;;;9.87;2.27;;;;;;;10.47;82.29;102149.97;5075545;28;20269;-35
2022/05/28 03:37:56;;;;;;;9.02;2.53;;;;;;;10.25;83.04;102129.44;5075225;28;20021;-35
2022/05/28 03:40:21;;;;;;;7.00;2.27;;;;;;;10.41;83.38;102142.66;5075793;28;20121;-35
2022/05/28 03:42:46;;;;;;;9.67;2.93;;;;;;;10.44;82.69;102158.50;5074962;28;20662;-35
2022/05/28 03:45:12;;;;;;;9.13;2.23;;;;;;;10.45;83.32;102154.75;5075166;28;20086;-35
2022/05/28 03:47:37;;;;;;;8.17;2.33;;;;;;;10.39;82.70;102144.69;5075042;28;20052;-35
2022/05/28 03:50:04;;;;;;;8.45;2.53;;;;;;;10.48;83.23;102148.09;5074622;28;20116;-35
2022/05/28 03:52:29;;;;;;;;;;;;;;;10.55;80.99;102149.81;5075674;28;20032;-35
2022/05/28 03:54:54;;;;;;;6.95;2.30;;;;;;;10.44;82.71;102133.28;5074929;28;20341;-35
2022/05/28 03:57:24;;;;;;;11.17;2.80;;;;;;;10.51;83.87;102156.66;5074948;28;20099;-35
2022/05/28 03:59:49;;;;;;;7.47;2.45;;;;;;;10.50;83.75;102157.69;5075212;28;20803;-35
2022/05/28 04:02:14;;;;;;;5.70;2.00;;;;;;;10.51;83.79;102153.13;5075074;28;20104;-35
2022/05/28 04:04:41;;;;;;;4.73;1.73;;;;;;;10.50;83.95;102159.56;5075266;28;20031;-35
2022/05/28 04:07:07;;;;;;;10.00;2.35;;;;;;;10.34;84.32;102138.22;5074398;28;20271;-35
2022/05/28 04:09:32;;;;;;;8.90;2.45;;;;;;;10.39;84.06;102150.09;5075145;28;20021;-35
2022/05/28 04:11:57;;;;;;;9.00;2.50;;;;;;;10.47;84.95;102158.06;5073875;28;20465;-35
2022/05/28 04:14:23;;;;;;;7.97;2.17;;;;;;;10.43;85.24;102156.78;5074276;28;20028;-35
2022/05/28 04:16:48;;;;;;;10.25;2.95;;;;;;;10.45;85.41;102170.97;5074187;28;20043;-35
2022/05/28 04:19:14;;;;;;;8.82;3.25;;;;;;;10.57;85.10;102171.25;5074733;28;20035;-35
2022/05/28 04:21:40;;;;;;;8.68;2.20;;;;;;;10.52;85.46;102155.59;5074978;28;20036;-35
2022/05/28 04:24:06;;;;;;;5.30;2.13;;;;;;;10.60;85.52;102164.63;5073263;28;20036;-35
2022/05/28 04:26:31;;;;;;;9.52;2.58;;;;;;;10.63;85.06;102166.91;5074797;28;20032;-35
2022/05/28 04:28:57;;;;;;;6.57;2.00;;;;;;;10.67;85.13;102171.72;5074425;28;20614;-35
2022/05/28 04:31:22;;;;;;;6.68;1.77;;;;;;;10.62;85.84;102154.41;5074643;28;20433;-35
2022/05/28 04:33:48;;;;;;;9.48;2.40;;;;;;;10.74;86.52;102178.03;5074070;28;20530;-35
2022/05/28 04:36:13;;;;;;;8.67;2.43;;;;;;;10.80;86.24;102166.38;5074682;28;20028;-35
2022/05/28 04:38:39;;;;;;;9.98;2.45;;;;;;;10.89;86.27;102177.88;5074029;28;20132;-35
2022/05/28 04:41:04;;;;;;;15.43;2.37;;;;;;;11.00;85.82;102173.78;5074094;28;20138;-35
2022/05/28 04:43:30;;;;;;;8.33;2.50;;;;;;;10.96;84.17;102170.63;5074339;28;20032;-35
2022/05/28 04:45:55;;;;;;;7.13;1.95;;;;;;;11.05;83.45;102182.94;5074034;28;20020;-35
2022/05/28 04:48:20;;;;;;;5.97;1.80;;;;;;;11.08;85.55;102176.31;5073855;28;20036;-35
2022/05/28 04:50:46;;;;;;;10.47;3.27;;;;;;;11.14;86.09;102182.78;5073697;28;20384;-35
2022/05/28 04:53:11;;;;;;;11.30;2.17;;;;;;;11.18;85.35;102170.53;5073654;28;20313;-35
2022/05/28 04:55:37;;;;;;;6.95;1.92;;;;;;;11.16;84.46;102157.16;5073932;28;20020;-35
2022/05/28 04:58:03;;;;;;;;;;;;;;;11.42;83.93;102185.38;5073979;28;20086;-35
2022/05/28 05:00:28;;;;;;;7.20;1.60;;;;;;;11.49;83.75;102183.53;5073914;28;20285;-35
2022/05/28 05:02:54;;;;;;;5.63;1.42;;;;;;;11.52;83.82;102183.97;5073264;28;20034;-35
2022/05/28 05:05:19;;;;;;;6.40;1.43;;;;;;;11.63;83.00;102178.97;5073671;28;20032;-35
2022/05/28 05:07:44;;;;;;;6.28;1.70;;;;;;;11.72;82.29;102180.47;5074018;28;20024;-35
2022/05/28 05:10:10;;;;;;;5.80;1.70;;;;;;;11.83;81.64;102190.72;5073302;28;20028;-35
2022/05/28 05:12:36;;;;;;;8.77;2.15;;;;;;;11.85;80.78;102186.72;5073435;28;20255;-35
2022/05/28 05:15:01;;;;;;;8.32;1.42;;;;;;;11.96;80.92;102193.44;5073597;28;20024;-35
2022/05/28 05:17:26;;;;;;;9.10;1.70;;;;;;;11.92;80.76;102184.06;5072984;28;20407;-35
2022/05/28 05:19:52;;;;;;;5.90;1.67;;;;;;;12.05;80.30;102189.50;5072983;28;20028;-35
2022/05/28 05:22:18;;;;;;;5.40;1.23;;;;;;;12.06;79.76;102176.75;5073482;28;20043;-35
2022/05/28 05:24:43;;;;;;;7.57;1.75;;;;;;;12.11;78.25;102199.50;5072276;28;20021;-35
2022/05/28 05:27:10;;;;;;;6.93;1.63;;;;;;;12.06;78.67;102169.47;5073996;28;20051;-35
2022/05/28 05:29:36;;;;;;;5.50;1.40;;;;;;;12.25;79.37;102194.91;5073099;28;20094;-35
2022/05/28 05:32:01;;;;;;;6.00;1.40;;;;;;;12.38;78.72;102192.16;5074141;28;20028;-35
2022/05/28 05:34:27;;;;;;;7.35;1.48;;;;;;;12.48;78.10;102189.03;5084309;28;20405;-35
2022/05/28 05:36:52;;;;;;;36.45;4.13;;;;;;;12.53;78.07;102202.78;5072916;28;20024;-35
2022/05/28 05:39:18;;;;;;;8.37;1.70;;;;;;;12.57;77.26;102198.63;5072747;28;20020;-35
2022/05/28 05:41:43;;;;;;;9.20;2.80;;;;;;;12.55;76.49;102189.88;5072618;28;20105;-35
2022/05/28 05:44:09;;;;;;;5.60;1.25;;;;;;;12.70;75.77;102196.94;5072084;28;20383;-35
2022/05/28 05:46:36;;;;;;;;;;;;;;;12.81;76.32;102204.41;5073784;28;20050;-35
2022/05/28 05:49:01;;;;;;;5.47;1.42;;;;;;;12.66;75.16;102195.69;5073117;28;20324;-35
2022/05/28 05:51:28;;;;;;;4.13;1.10;;;;;;;12.74;74.52;102214.47;5072833;28;20116;-35
2022/05/28 05:53:53;;;;;;;11.63;1.83;;;;;;;12.82;74.66;102212.34;5072608;28;20032;-35
2022/05/28 05:56:19;;;;;;;4.88;1.30;;;;;;;12.84;74.61;102198.56;5073340;28;20035;-35
2022/05/28 05:58:44;;;;;;;7.15;1.70;;;;;;;12.96;74.18;102209.59;5073213;28;20025;-35
2022/05/28 06:01:09;;;;;;;13.13;1.70;;;;;;;13.02;73.39;102208.75;5073286;28;20081;-35
2022/05/28 06:03:36;;;;;;;8.05;1.65;;;;;;;13.05;73.03;102200.19;5072822;28;20077;-35
2022/05/28 06:06:03;;;;;;;3.88;1.15;;;;;;;12.97;71.78;102209.38;5072741;28;20028;-35
2022/05/28 06:08:29;;;;;;;5.72;1.70;;;;;;;13.02;71.19;102214.16;5072363;28;20036;-35
2022/05/28 06:10:55;;;;;;;5.20;1.27;;;;;;;13.00;71.32;102219.81;5072780;28;20028;-35
2022/05/28 06:13:21;;;;;;;4.70;1.33;;;;;;;12.95;69.65;102211.47;5072630;28;20104;-35
2022/05/28 06:15:46;;;;;;;6.05;1.48;;;;;;;12.85;69.41;102213.81;5072520;28;20082;-35
2022/05/28 06:18:16;;;;;;;5.47;1.60;;;;;;;12.94;70.00;102215.25;5072348;28;20032;-35
2022/05/28 06:20:41;;;;;;;3.22;0.80;;;;;;;12.97;68.82;102214.81;5072566;28;20032;-35
2022/05/28 06:23:07;;;;;;;4.60;1.20;;;;;;;12.99;67.66;102218.16;5072531;28;20078;-35
2022/05/28 06:25:33;;;;;;;5.93;1.60;;;;;;;13.03;67.24;102215.84;5072769;28;20480;-35
2022/05/28 06:27:58;;;;;;;6.47;1.20;;;;;;;13.12;67.58;102218.09;5072161;28;20113;-35
2022/05/28 06:30:24;;;;;;;10.93;1.33;;;;;;;13.23;67.82;102222.09;5072878;28;20040;-35
2022/05/28 06:32:50;;;;;;;5.43;1.05;;;;;;;13.27;65.72;102223.28;5072313;28;20456;-35
2022/05/28 06:35:15;;;;;;;4.57;1.00;;;;;;;13.31;66.50;102229.13;5073464;28;20031;-35
2022/05/28 06:37:41;;;;;;;4.05;0.95;;;;;;;13.45;65.92;102222.59;5076563;28;20029;-35
2022/05/28 06:40:07;;;;;;;5.20;1.20;;;;;;;13.50;65.36;102230.94;5076774;28;20056;-35
2022/05/28 06:42:33;;;;;;;4.95;1.00;;;;;;;13.57;65.21;102234.47;5076552;28;20150;-35
2022/05/28 06:44:59;;;;;;;6.25;1.30;;;;;;;13.68;63.90;102234.81;5075606;28;20475;-35
2022/05/28 06:47:24;;;;;;;6.28;1.20;;;;;;;13.68;62.72;102227.50;5076364;28;20389;-35
2022/05/28 06:51:01;;;;;;;7.00;1.33;;;;;;;13.73;62.53;102218.69;5075985;28;20025;-35
2022/05/28 06:52:36;;;;;;;5.20;1.08;;;;;;;13.58;60.25;102230.69;5075180;28;20032;-35
2022/05/28 06:55:02;;;;;;;4.53;1.17;;;;;;;13.64;61.72;102237.13;5076309;28;20032;-35
2022/05/28 06:57:27;;;;;;;5.20;1.20;;;;;;;13.70;61.98;102232.72;5075953;28;20113;-35
2022/05/28 06:59:53;;;;;;;5.18;1.00;;;;;;;13.77;61.79;102234.34;5076354;28;20057;-35
2022/05/28 07:02:18;;;;;;;8.90;1.50;;;;;;;13.87;62.32;102236.59;5076667;28;20064;-35
2022/05/28 07:04:45;;;;;;;4.57;1.10;;;;;;;13.88;62.64;102238.25;5075786;28;20025;-35
2022/05/28 07:07:10;;;;;;;3.38;0.93;;;;;;;14.03;60.82;102233.34;5075913;28;20032;-35
2022/05/28 07:09:36;;;;;;;6.65;1.15;;;;;;;14.12;60.28;102242.06;5075693;28;20377;-35
2022/05/28 07:12:01;;;;;;;6.17;1.07;;;;;;;14.09;59.81;102240.59;5075922;28;20445;-35
2022/05/28 07:14:26;;;;;;;5.23;1.20;;;;;;;14.14;60.50;102231.78;5075883;28;20274;-35
2022/05/28 07:16:52;;;;;;;4.00;1.10;;;;;;;14.27;61.45;102239.03;5076033;28;20071;-35
2022/05/28 07:19:17;;;;;;;;;;;;;;;14.47;61.87;102242.41;5076522;28;20028;-35
2022/05/28 07:21:42;;;;;;;4.73;1.00;;;;;;;14.55;59.73;102234.00;5076015;28;19968;-35
2022/05/28 07:24:07;;;;;;;9.00;1.13;;;;;;;14.52;57.83;102245.31;5075737;28;20379;-35
2022/05/28 07:26:33;;;;;;;3.95;1.05;;;;;;;14.43;56.63;102236.56;5075982;28;20292;-35
2022/05/28 07:28:59;;;;;;;;;;;;;;;14.58;58.04;102244.41;5076037;28;20025;-35
2022/05/28 07:31:24;;;;;;;4.47;0.90;;;;;;;14.53;57.41;102232.53;5075794;28;19923;-35
2022/05/28 07:33:50;;;;;;;7.40;1.30;;;;;;;14.64;56.39;102231.78;5075282;28;20275;-35
2022/05/28 07:36:16;;;;;;;;;;;;;;;14.77;56.08;102247.19;5075463;28;20032;-35
2022/05/28 07:38:42;;;;;;;7.50;0.95;;;;;;;14.59;55.36;102240.66;5075006;28;19909;-35
2022/05/28 07:41:11;;;;;;;4.55;1.00;;;;;;;14.58;55.40;102241.69;5075457;28;20033;-35
2022/05/28 07:43:37;;;;;;;5.65;1.70;;;;;;;14.66;55.60;102241.41;5075268;28;20052;-35
2022/05/28 07:46:03;;;;;;;;;;;;;;;14.89;56.63;102238.06;5075509;28;20416;-35
2022/05/28 07:48:29;;;;;;;5.18;1.38;;;;;;;14.85;54.34;102245.00;5074403;28;19908;-35
2022/05/28 07:50:54;;;;;;;3.55;0.93;;;;;;;14.98;54.74;102232.28;5074686;28;20032;-35
2022/05/28 07:53:19;;;;;;;17.95;2.22;;;;;;;15.11;52.09;102232.13;5074855;28;20028;-35
2022/05/28 07:55:45;;;;;;;4.97;1.38;;;;;;;15.24;52.11;102231.16;5075445;28;20074;-35
2022/05/28 07:58:14;;;;;;;4.57;1.40;;;;;;;15.36;53.05;102242.94;5074841;28;20116;-35
2022/05/28 08:00:42;;;;;;;6.13;1.17;;;;;;;15.12;51.87;102236.53;5074521;28;20040;-35
2022/05/28 08:03:09;;;;;;;5.50;1.50;;;;;;;14.96;53.50;102243.41;5074279;28;20036;-35
2022/05/28 08:05:36;;;;;;;7.50;1.95;;;;;;;14.91;54.10;102237.81;5074672;28;20025;-35
2022/05/28 08:08:02;;;;;;;4.30;1.20;;;;;;;15.05;54.80;102238.50;5074328;28;20051;-35
2022/05/28 08:10:28;;;;;;;3.60;1.20;;;;;;;15.08;53.42;102224.41;5074373;28;20078;-35
2022/05/28 08:12:53;;;;;;;;;;;;;;;15.28;53.77;102235.94;5088428;28;20024;-35
2022/05/28 08:15:18;;;;;;;11.25;1.77;;;;;;;15.26;55.09;102229.84;5094782;28;20275;-35
2022/05/28 08:17:44;;;;;;;10.68;2.20;;;;;;;15.39;54.22;102217.97;5095263;28;20055;-35
2022/05/28 08:20:10;;;;;;;4.83;1.23;;;;;;;15.51;53.34;102226.19;5094928;28;20103;-35
2022/05/28 08:25:19;;;;;;;12.30;2.35;;;;;;;15.41;53.13;102230.28;5094867;28;20085;-35
2022/05/28 08:27:44;;;;;;;;;;;;;;;15.58;54.22;102232.41;5094261;28;20465;-35
2022/05/28 08:30:10;;;;;;;6.73;1.70;;;;;;;15.09;51.17;102229.66;5094251;28;19923;-35
2022/05/28 08:32:36;;;;;;;;;;;;;;;15.14;52.53;102246.16;5092696;28;20043;-35
2022/05/28 08:35:01;;;;;;;6.23;1.37;;;;;;;14.85;52.30;102238.72;5093948;28;20260;-35
2022/05/28 08:37:26;;;;;;;;;;;;;;;15.12;52.86;102237.34;5085827;28;20518;-35
2022/05/28 08:39:52;;;;;;;3.73;1.17;;;;;;;15.26;51.77;102229.03;5073427;28;19954;-35
2022/05/28 08:42:21;;;;;;;7.47;1.25;;;;;;;15.34;50.42;102235.00;5073313;28;20285;-35
2022/05/28 08:44:48;;;;;;;13.27;2.28;;;;;;;15.53;51.41;102222.19;5074403;28;20062;-35
2022/05/28 08:47:18;;;;;;;3.25;1.00;;;;;;;15.63;50.08;102227.09;5074255;28;20025;-35
2022/05/28 08:49:45;;;;;;;5.25;1.27;;;;;;;15.82;49.00;102226.00;5073704;28;20165;-35
2022/05/28 08:52:18;;;;;;;7.60;1.63;;;;;;;15.92;48.31;102215.34;5073617;28;20067;-35
2022/05/28 08:54:56;;;;;;;4.70;1.02;;;;;;;16.06;45.96;102215.97;5073587;28;20028;-35
2022/05/28 08:57:30;;;;;;;9.75;1.27;;;;;;;16.15;47.16;102221.91;5073496;28;20120;-35
2022/05/28 09:00:03;;;;;;;8.05;1.20;;;;;;;16.11;46.75;102223.47;5073596;28;20032;-35
2022/05/28 09:02:39;;;;;;;4.22;1.02;;;;;;;16.12;47.04;102227.84;5076291;28;20381;-35
2022/05/28 09:05:16;;;;;;;63.13;7.35;;;;;;;16.30;47.96;102238.69;5091604;28;20484;-35
2022/05/28 09:07:41;;;;;;;;;;;;;;;16.48;47.87;102229.53;5094217;28;20146;-35
2022/05/28 09:10:10;;;;;;;5.05;1.35;;;;;;;16.08;45.62;102218.47;5092077;28;20367;-35
2022/05/28 09:12:54;;;;;;;13.23;1.90;;;;;;;16.34;46.97;102218.00;5091474;28;20107;-35
2022/05/28 09:15:19;;;;;;;5.28;1.38;;;;;;;16.77;45.54;102225.06;5093535;28;20028;-35
2022/05/28 09:17:49;;;;;;;5.68;1.00;;;;;;;16.93;43.74;102209.81;5094016;28;20078;-35
2022/05/28 09:20:21;;;;;;;5.78;0.98;;;;;;;16.93;42.97;102224.34;5091636;28;20047;-35
2022/05/28 09:22:47;;;;;;;3.78;1.15;;;;;;;16.86;42.54;102228.25;5078798;28;20033;-35
2022/05/28 09:25:18;;;;;;;5.40;1.13;;;;;;;16.91;43.53;102221.00;5073020;28;20028;-35
2022/05/28 09:27:54;;;;;;;4.47;1.20;;;;;;;17.02;43.76;102221.22;5074240;28;20032;-35
2022/05/28 09:30:50;;;;;;;5.73;1.63;;;;;;;17.32;44.90;102213.66;5073134;28;20078;-35
2022/05/28 09:33:34;;;;;;;4.55;1.30;;;;;;;17.34;43.59;102205.22;5073251;28;20032;-35
2022/05/28 09:36:11;;;;;;;5.30;1.23;;;;;;;17.49;43.18;102219.19;5073299;28;20024;-35
2022/05/28 09:39:01;;;;;;;3.63;1.10;;;;;;;17.38;44.32;102214.59;5072928;28;20540;-35
2022/05/28 09:41:52;;;;;;;4.43;1.27;;;;;;;17.03;45.41;102210.06;5072896;28;20036;-35
2022/05/28 09:44:48;;;;;;;5.10;1.20;;;;;;;17.01;45.46;102203.16;5073208;28;20024;-35
2022/05/28 09:47:16;;;;;;;5.57;1.20;;;;;;;17.00;44.70;102216.00;5073048;28;20037;-35
2022/05/28 09:49:53;;;;;;;5.20;1.13;;;;;;;16.96;45.54;102201.16;5072674;28;20435;-35
2022/05/28 09:52:30;;;;;;;5.53;1.40;;;;;;;17.24;45.91;102220.34;5072998;28;20024;-35
2022/05/28 09:55:21;;;;;;;5.40;1.55;;;;;;;17.48;45.67;102214.81;5073080;28;20086;-35
2022/05/28 09:58:00;;;;;;;5.63;1.25;;;;;;;17.81;43.85;102218.69;5072723;28;20081;-35
2022/05/28 10:00:26;;;;;;;4.35;1.20;;;;;;;18.06;40.77;102191.81;5073371;28;20020;-35
2022/05/28 10:05:46;;;;;;;6.25;1.40;;;;;;;17.61;42.00;102200.81;5093476;28;19950;-35
2022/05/28 10:08:13;;;;;;;7.43;1.40;;;;;;;17.38;43.01;102206.41;5083775;28;20449;-35
2022/05/28 10:10:40;;;;;;;3.83;1.10;;;;;;;17.06;43.36;102215.03;5074408;28;20040;-35
2022/05/28 10:13:12;;;;;;;5.45;1.13;;;;;;;17.09;42.97;102206.38;5077155;28;20025;-35
2022/05/28 10:15:40;;;;;;;5.15;1.20;;;;;;;17.15;41.56;102189.00;5077846;28;20115;-35
2022/05/28 10:18:11;;;;;;;5.07;1.38;;;;;;;17.50;40.57;102196.22;5077477;28;20056;-35
2022/05/28 10:20:36;;;;;;;6.38;1.65;;;;;;;17.73;40.15;102196.16;5093831;28;20036;-35
2022/05/28 10:23:03;;;;;;;;;;;;;;;18.15;40.68;102201.25;5097840;28;20039;-35
2022/05/28 10:25:35;;;;;;;5.57;1.30;;;;;;;17.98;38.97;102187.56;5096065;28;20316;-35
2022/05/28 10:28:02;;;;;;;10.27;1.58;;;;;;;18.16;39.14;102196.63;5097310;28;20380;-35
2022/05/28 10:30:34;;;;;;;4.93;1.33;;;;;;;17.86;40.02;102178.63;5096142;28;20128;-35
2022/05/28 10:33:14;;;;;;;4.47;1.08;;;;;;;17.65;40.64;102193.78;5096842;28;20028;-35
2022/05/28 10:35:40;;;;;;;6.75;1.70;;;;;;;17.73;40.94;102192.59;5097289;28;20016;-35
2022/05/28 10:38:05;;;;;;;;;;;;;;;18.09;41.79;102183.06;5097622;28;20344;-35
2022/05/28 10:40:31;;;;;;;8.30;1.50;;;;;;;18.26;39.05;102181.19;5097036;28;20041;-35
2022/05/28 10:43:03;;;;;;;;;;;;;;;18.65;39.16;102189.44;5097514;28;20302;-35
2022/05/28 10:45:40;;;;;;;6.03;1.20;;;;;;;18.73;38.38;102188.19;5096886;28;19973;-35
2022/05/28 10:48:22;;;;;;;4.88;1.25;;;;;;;19.02;39.26;102180.59;5096982;28;20028;-35
2022/05/28 10:50:50;;;;;;;5.97;1.45;;;;;;;19.02;38.84;102183.34;5096521;28;20057;-35
2022/05/28 10:53:42;;;;;;;6.35;1.50;;;;;;;18.92;39.73;102185.97;5096858;28;20028;-35
2022/05/28 10:56:30;;;;;;;5.97;1.35;;;;;;;18.55;40.11;102183.81;5096250;28;20036;-35
2022/05/28 10:59:04;;;;;;;4.22;1.20;;;;;;;18.18;40.85;102191.72;5096513;28;20024;-35
2022/05/28 11:01:40;;;;;;;8.27;1.73;;;;;;;18.31;39.67;102176.88;5096724;28;20125;-35
2022/05/28 11:04:28;;;;;;;7.07;1.95;;;;;;;18.59;38.81;102175.88;5096368;28;20024;-35
2022/05/28 11:07:22;;;;;;;3.53;0.90;;;;;;;18.90;38.70;102169.78;5096097;28;20120;-35
2022/05/28 11:10:06;;;;;;;7.35;1.50;;;;;;;19.03;38.77;102182.25;5095944;28;20089;-35
2022/05/28 11:12:43;;;;;;;6.07;1.15;;;;;;;18.81;37.77;102175.97;5096154;28;20121;-35
2022/05/28 11:15:47;;;;;;;3.60;1.05;;;;;;;18.79;38.01;102176.22;5096142;28;20322;-35
2022/05/28 11:18:43;;;;;;;4.47;1.17;;;;;;;18.75;37.87;102175.88;5095972;28;20043;-35
2022/05/28 11:21:20;;;;;;;3.75;1.05;;;;;;;18.05;37.62;102179.16;5096185;28;20401;-35
2022/05/28 11:23:51;;;;;;;6.13;1.20;;;;;;;17.61;38.72;102170.72;5095763;28;20035;-34
2022/05/28 11:26:25;;;;;;;7.88;1.65;;;;;;;17.75;39.43;102163.06;5095973;28;20430;-34
2022/05/28 11:29:29;;;;;;;13.00;2.20;;;;;;;18.45;39.27;102169.97;5096330;28;20028;-35
2022/05/28 11:32:12;;;;;;;17.15;2.45;;;;;;;18.66;37.94;102151.88;5073446;28;20421;-35
2022/05/28 11:34:46;;;;;;;5.93;1.20;;;;;;;19.05;37.09;102155.44;5056696;28;20381;-35
2022/05/28 11:37:16;;;;;;;8.82;1.27;;;;;;;19.27;35.36;102160.88;5073181;28;20036;-35
2022/05/28 11:39:48;;;;;;;5.75;1.30;;;;;;;18.98;35.52;102168.50;5072867;28;20123;-35
2022/05/28 11:42:29;;;;;;;5.07;1.20;;;;;;;18.72;37.45;102157.22;5072932;28;20115;-35
2022/05/28 11:45:06;;;;;;;13.88;2.05;;;;;;;18.56;38.55;102158.06;5072923;28;20033;-35